Time;durP1;ratioP1;P1;durP2;ratioP2;P2;SDS_P1;SDS_P2;PMS_P1;PMS_P2;Temp;Humidity;BMP_temperature;BMP_pressure;BME280_temperature;BME280_humidity;BME280_pressure;Samples;Min_cycle;Max_cycle;Signal;HPM_P1;HPM_P2
2024/02/11 00:01:05;;;;;;;11.98;8.52;;;11.10;99.90;;;;;;4996036;28;20485;-71
2024/02/11 00:03:31;;;;;;;11.98;9.10;;;11.30;99.90;;;;;;4994594;28;20394;-72
2024/02/11 00:05:57;;;;;;;13.30;9.20;;;11.00;99.90;;;;;;4994510;28;20505;-71
2024/02/11 00:08:23;;;;;;;14.13;9.05;;;10.80;99.90;;;;;;4992374;28;20578;-70
2024/02/11 00:10:53;;;;;;;16.75;10.45;;;10.70;99.90;;;;;;4993712;28;20880;-71
2024/02/11 00:13:19;;;;;;;15.07;9.88;;;10.60;99.90;;;;;;4992162;28;20876;-72
2024/02/11 00:15:45;;;;;;;16.25;9.95;;;10.50;99.90;;;;;;4993848;28;20387;-72
2024/02/11 00:18:11;;;;;;;20.85;12.27;;;10.50;99.90;;;;;;4994402;28;20777;-71
2024/02/11 00:20:41;;;;;;;14.95;10.25;;;10.50;99.90;;;;;;4992381;28;20401;-71
2024/02/11 00:23:07;;;;;;;14.50;10.07;;;10.50;99.90;;;;;;4993217;28;20425;-71
2024/02/11 00:25:33;;;;;;;15.57;10.00;;;10.50;99.90;;;;;;4994100;28;20422;-73
2024/02/11 00:27:59;;;;;;;15.77;11.00;;;10.50;99.90;;;;;;4992147;28;20461;-72
2024/02/11 00:30:27;;;;;;;16.10;10.60;;;10.50;99.90;;;;;;4993347;28;20409;-73
2024/02/11 00:32:56;;;;;;;14.50;10.02;;;10.50;99.90;;;;;;4993230;28;20394;-73
2024/02/11 00:35:25;;;;;;;15.30;10.43;;;10.50;99.90;;;;;;4994179;28;20474;-72
2024/02/11 00:37:51;;;;;;;16.67;11.13;;;10.40;99.90;;;;;;4993591;28;20402;-71
2024/02/11 00:40:18;;;;;;;14.05;10.07;;;10.40;99.90;;;;;;4993743;28;20421;-71
2024/02/11 00:42:45;;;;;;;15.90;9.80;;;10.50;99.90;;;;;;4993096;28;20441;-72
2024/02/11 00:45:13;;;;;;;11.70;9.20;;;10.50;99.90;;;;;;4994022;28;20401;-72
2024/02/11 00:47:40;;;;;;;14.30;9.20;;;10.50;99.90;;;;;;4992855;28;20545;-72
2024/02/11 00:50:14;;;;;;;11.77;8.60;;;10.50;99.90;;;;;;4992289;28;20391;-71
2024/02/11 00:52:44;;;;;;;13.00;9.83;;;10.50;99.90;;;;;;4993639;28;20395;-72
2024/02/11 00:55:11;;;;;;;15.02;9.10;;;10.50;99.90;;;;;;4993096;28;20390;-73
2024/02/11 00:57:37;;;;;;;12.63;9.10;;;10.50;99.90;;;;;;4991636;28;20398;-72
2024/02/11 01:00:10;;;;;;;12.85;8.90;;;10.40;99.90;;;;;;4992659;28;20386;-72
2024/02/11 01:02:37;;;;;;;13.30;8.73;;;10.50;99.90;;;;;;4992313;28;20489;-73
2024/02/11 01:05:03;;;;;;;12.80;9.30;;;10.50;99.90;;;;;;4992423;28;20398;-73
2024/02/11 01:07:30;;;;;;;17.05;8.80;;;10.50;99.90;;;;;;4992403;28;20394;-73
2024/02/11 01:09:56;;;;;;;12.98;9.02;;;10.50;99.90;;;;;;4993056;28;20387;-72
2024/02/11 01:12:23;;;;;;;12.20;8.50;;;10.50;99.90;;;;;;4992979;28;20482;-72
2024/02/11 01:14:49;;;;;;;16.60;9.02;;;10.50;99.90;;;;;;4993827;28;20456;-71
2024/02/11 01:17:15;;;;;;;12.55;9.23;;;10.50;99.90;;;;;;4992072;28;20846;-72
2024/02/11 01:19:43;;;;;;;13.20;8.80;;;10.50;99.90;;;;;;4994739;28;20382;-72
2024/02/11 01:22:08;;;;;;;12.50;8.27;;;10.60;99.90;;;;;;4992490;28;20437;-71
2024/02/11 01:24:34;;;;;;;11.87;8.63;;;10.50;99.90;;;;;;4991942;28;20861;-71
2024/02/11 01:26:59;;;;;;;13.50;8.87;;;10.50;99.90;;;;;;4992072;28;20395;-73
2024/02/11 01:29:25;;;;;;;11.30;7.65;;;10.50;99.90;;;;;;4991344;28;20407;-74
2024/02/11 01:31:51;;;;;;;10.43;7.30;;;10.60;99.90;;;;;;4993843;28;20793;-74
2024/02/11 01:34:17;;;;;;;11.38;7.50;;;10.50;99.90;;;;;;4991939;28;20426;-75
2024/02/11 01:36:43;;;;;;;11.57;7.75;;;10.50;99.90;;;;;;4993582;28;20813;-73
2024/02/11 01:39:09;;;;;;;12.13;8.15;;;10.60;99.90;;;;;;4992716;28;20386;-72
2024/02/11 01:41:34;;;;;;;12.23;8.13;;;10.60;99.90;;;;;;4993417;28;20795;-73
2024/02/11 01:44:03;;;;;;;11.90;8.10;;;10.60;99.90;;;;;;4992722;28;20444;-73
2024/02/11 01:46:29;;;;;;;10.65;8.07;;;10.60;99.90;;;;;;4977168;28;20405;-75
2024/02/11 01:49:02;;;;;;;12.05;8.00;;;10.60;99.90;;;;;;4992534;28;20414;-74
2024/02/11 01:51:29;;;;;;;12.38;7.82;;;10.60;99.90;;;;;;4994564;28;20386;-73
2024/02/11 01:53:56;;;;;;;12.52;7.30;;;10.60;99.90;;;;;;4991752;28;20393;-72
2024/02/11 01:56:23;;;;;;;14.57;7.93;;;10.60;99.90;;;;;;4990045;28;20816;-75
2024/02/11 01:58:49;;;;;;;14.45;8.40;;;10.60;99.90;;;;;;4991621;28;20530;-73
2024/02/11 02:01:17;;;;;;;13.82;8.02;;;10.60;99.90;;;;;;4991626;28;20452;-73
2024/02/11 02:03:47;;;;;;;11.57;8.32;;;10.60;99.90;;;;;;4991740;28;20406;-73
2024/02/11 02:06:17;;;;;;;11.70;8.10;;;10.60;99.90;;;;;;4991844;28;20522;-73
2024/02/11 02:08:42;;;;;;;9.80;7.80;;;10.60;99.90;;;;;;4992102;28;20426;-73
2024/02/11 02:11:09;;;;;;;10.83;7.80;;;10.60;99.90;;;;;;4992987;28;20935;-74
2024/02/11 02:13:37;;;;;;;11.48;8.07;;;10.60;99.90;;;;;;4993870;28;20401;-74
2024/02/11 02:16:02;;;;;;;14.35;8.05;;;10.60;99.90;;;;;;4990792;28;20521;-72
2024/02/11 02:18:34;;;;;;;15.93;8.30;;;10.60;99.90;;;;;;5004478;23;20454;-75
2024/02/11 02:21:01;;;;;;;12.98;8.40;;;10.60;99.90;;;;;;4991353;28;20565;-75
2024/02/11 02:23:26;;;;;;;17.25;9.40;;;10.60;99.90;;;;;;4991418;28;20379;-74
2024/02/11 02:25:52;;;;;;;13.05;8.57;;;10.60;99.90;;;;;;4991289;28;20448;-75
2024/02/11 02:28:20;;;;;;;12.75;8.27;;;10.50;99.90;;;;;;4991356;28;20414;-74
2024/02/11 02:30:46;;;;;;;14.07;9.05;;;10.50;99.90;;;;;;4991205;28;20389;-75
2024/02/11 02:33:11;;;;;;;15.38;8.93;;;10.40;99.90;;;;;;4992394;28;20390;-75
2024/02/11 02:35:37;;;;;;;12.50;8.80;;;10.40;99.90;;;;;;4995236;28;20446;-75
2024/02/11 02:38:03;;;;;;;13.65;9.00;;;10.30;99.90;;;;;;4995345;28;20386;-75
2024/02/11 02:40:30;;;;;;;16.42;9.27;;;10.30;99.90;;;;;;4994998;28;20453;-75
2024/02/11 02:42:59;;;;;;;10.93;8.10;;;10.30;99.90;;;;;;4995176;28;20417;-75
2024/02/11 02:45:25;;;;;;;12.55;9.15;;;10.10;99.90;;;;;;4995156;28;20808;-76
2024/02/11 02:47:50;;;;;;;13.63;8.77;;;10.10;99.90;;;;;;4994921;28;20512;-73
2024/02/11 02:50:16;;;;;;;15.50;9.32;;;10.10;99.90;;;;;;4995018;28;20426;-76
2024/02/11 02:52:43;;;;;;;15.43;9.25;;;10.10;99.90;;;;;;4994710;28;20417;-75
2024/02/11 02:55:09;;;;;;;14.13;9.20;;;10.00;99.90;;;;;;4994904;28;20390;-76
2024/02/11 02:57:37;;;;;;;12.10;9.00;;;10.10;99.90;;;;;;4994767;28;20386;-74
2024/02/11 03:00:05;;;;;;;12.18;9.00;;;10.00;99.90;;;;;;4995145;28;20382;-74
2024/02/11 03:02:31;;;;;;;14.15;8.85;;;10.00;99.90;;;;;;4994847;28;20936;-74
2024/02/11 03:04:56;;;;;;;12.77;8.98;;;9.90;99.90;;;;;;4994835;28;20877;-74
2024/02/11 03:07:22;;;;;;;13.73;9.30;;;9.90;99.90;;;;;;4994762;28;20386;-74
2024/02/11 03:09:48;;;;;;;13.18;9.25;;;9.90;99.90;;;;;;4994552;28;20441;-74
2024/02/11 03:12:13;;;;;;;16.00;9.13;;;9.90;99.90;;;;;;4996313;28;20424;-74
2024/02/11 03:14:39;;;;;;;12.88;9.63;;;9.90;99.90;;;;;;4995792;28;20481;-74
2024/02/11 03:17:05;;;;;;;13.30;9.15;;;9.90;99.90;;;;;;4994451;28;20478;-74
2024/02/11 03:19:30;;;;;;;13.30;9.20;;;9.90;99.90;;;;;;4994054;28;20413;-74
2024/02/11 03:21:56;;;;;;;13.17;9.17;;;9.90;99.90;;;;;;4994744;28;20394;-73
2024/02/11 03:24:21;;;;;;;13.70;9.50;;;9.90;99.90;;;;;;4994313;28;20394;-74
2024/02/11 03:26:47;;;;;;;14.87;9.70;;;9.90;99.90;;;;;;4994260;28;20430;-75
2024/02/11 03:29:12;;;;;;;13.20;9.45;;;9.90;99.90;;;;;;4994064;28;20410;-74
2024/02/11 03:31:38;;;;;;;11.60;9.20;;;9.90;99.90;;;;;;4994162;28;20387;-73
2024/02/11 03:34:06;;;;;;;15.55;9.88;;;9.90;99.90;;;;;;4993886;28;20387;-74
2024/02/11 03:36:33;;;;;;;10.77;8.52;;;9.90;99.90;;;;;;4994162;28;20877;-73
2024/02/11 03:38:58;;;;;;;12.48;8.40;;;9.90;99.90;;;;;;4994630;28;20741;-74
2024/02/11 03:41:24;;;;;;;11.85;9.10;;;9.80;99.90;;;;;;4993109;28;20417;-74
2024/02/11 03:43:49;;;;;;;12.95;8.82;;;9.80;99.90;;;;;;4993950;28;20769;-75
2024/02/11 03:46:15;;;;;;;13.98;8.88;;;9.90;99.90;;;;;;4993553;28;20386;-74
2024/02/11 03:48:43;;;;;;;17.60;8.48;;;9.90;99.90;;;;;;4993978;28;20462;-75
2024/02/11 03:51:09;;;;;;;11.98;9.25;;;9.80;99.90;;;;;;4994074;28;20397;-74
2024/02/11 03:53:35;;;;;;;15.27;8.00;;;9.70;99.90;;;;;;4995818;28;20824;-73
2024/02/11 03:56:06;;;;;;;12.13;8.00;;;9.80;99.90;;;;;;4998937;28;20832;-75
2024/02/11 03:58:35;;;;;;;13.90;8.87;;;9.80;99.90;;;;;;4997840;28;20873;-74
2024/02/11 04:01:00;;;;;;;11.35;8.23;;;9.70;99.90;;;;;;4997920;28;20395;-75
2024/02/11 04:03:26;;;;;;;18.45;9.27;;;9.70;99.90;;;;;;4995718;28;20418;-74
2024/02/11 04:05:55;;;;;;;18.20;9.15;;;9.70;99.90;;;;;;4996940;28;20442;-73
2024/02/11 04:08:21;;;;;;;14.10;8.68;;;9.80;99.90;;;;;;4996344;28;20477;-75
2024/02/11 04:10:52;;;;;;;13.95;8.38;;;9.90;99.90;;;;;;4994000;28;20507;-75
2024/02/11 04:13:23;;;;;;;12.63;8.60;;;10.00;99.90;;;;;;4992566;28;20393;-74
2024/02/11 04:15:53;;;;;;;14.53;8.80;;;10.00;99.90;;;;;;4993392;28;20457;-74
2024/02/11 04:18:21;;;;;;;14.45;8.40;;;10.10;99.90;;;;;;4993294;28;20437;-74
2024/02/11 04:20:46;;;;;;;11.88;8.25;;;10.20;99.90;;;;;;4993812;28;20816;-74
2024/02/11 04:23:14;;;;;;;13.97;8.60;;;10.20;99.90;;;;;;4993696;28;20391;-75
2024/02/11 04:25:41;;;;;;;12.60;8.88;;;10.30;99.90;;;;;;4993339;28;20386;-74
2024/02/11 04:28:07;;;;;;;10.95;7.90;;;10.40;99.90;;;;;;4993104;28;20505;-74
2024/02/11 04:30:37;;;;;;;12.07;8.15;;;10.40;99.90;;;;;;4993249;28;20468;-74
2024/02/11 04:33:03;;;;;;;13.57;8.38;;;10.40;99.90;;;;;;4993167;28;20379;-74
2024/02/11 04:35:30;;;;;;;11.60;8.05;;;10.40;99.90;;;;;;4992991;28;20385;-74
2024/02/11 04:37:55;;;;;;;12.13;7.45;;;10.50;99.90;;;;;;4992271;28;20497;-74
2024/02/11 04:40:22;;;;;;;10.37;7.27;;;10.40;99.90;;;;;;4993843;28;20896;-74
2024/02/11 04:42:56;;;;;;;12.70;8.00;;;10.40;99.90;;;;;;4993174;28;20487;-75
2024/02/11 04:45:23;;;;;;;10.00;7.40;;;10.50;99.90;;;;;;4993640;28;20391;-74
2024/02/11 04:47:53;;;;;;;10.93;7.60;;;10.50;99.90;;;;;;4994473;28;20406;-74
2024/02/11 04:50:21;;;;;;;11.27;7.85;;;10.50;99.90;;;;;;4994509;28;20386;-74
2024/02/11 04:52:54;;;;;;;15.25;8.40;;;10.50;99.90;;;;;;4993908;28;20477;-74
2024/02/11 04:55:40;;;;;;;16.33;8.10;;;10.50;99.90;;;;;;4992454;28;20397;-73
2024/02/11 04:58:14;;;;;;;15.18;8.63;;;10.50;99.90;;;;;;4993115;28;20493;-74
2024/02/11 05:00:41;;;;;;;14.52;8.60;;;10.50;99.90;;;;;;4992980;28;20390;-74
2024/02/11 05:03:06;;;;;;;15.60;8.45;;;10.50;99.90;;;;;;4994282;28;20386;-74
2024/02/11 05:05:33;;;;;;;13.33;8.30;;;10.60;99.90;;;;;;4993431;28;20393;-75
2024/02/11 05:08:00;;;;;;;9.25;7.45;;;10.60;99.90;;;;;;4991527;28;20407;-74
2024/02/11 05:10:27;;;;;;;14.05;8.10;;;10.60;99.90;;;;;;4992982;28;20387;-75
2024/02/11 05:12:53;;;;;;;12.50;8.30;;;10.70;99.90;;;;;;4992341;28;20394;-75
2024/02/11 05:15:23;;;;;;;12.90;8.30;;;10.70;99.90;;;;;;4992352;28;20397;-74
2024/02/11 05:17:50;;;;;;;14.57;8.70;;;10.70;99.90;;;;;;4992219;28;20403;-74
2024/02/11 05:20:26;;;;;;;12.27;8.45;;;10.70;99.90;;;;;;4992648;28;20407;-74
2024/02/11 05:22:55;;;;;;;12.23;8.30;;;10.70;99.90;;;;;;4992563;28;20430;-75
2024/02/11 05:25:22;;;;;;;12.68;8.18;;;10.70;99.90;;;;;;4992407;28;20766;-74
2024/02/11 05:28:02;;;;;;;13.07;8.80;;;10.70;99.90;;;;;;4992662;28;20411;-75
2024/02/11 05:30:37;;;;;;;14.05;8.98;;;10.90;99.90;;;;;;4992681;28;20811;-75
2024/02/11 05:33:03;;;;;;;17.48;10.00;;;10.90;99.90;;;;;;4992277;28;20394;-75
2024/02/11 05:35:34;;;;;;;12.10;9.38;;;10.80;99.90;;;;;;4991906;28;20387;-74
2024/02/11 05:38:03;;;;;;;13.90;9.83;;;10.90;99.90;;;;;;4992173;28;20398;-76
2024/02/11 05:40:36;;;;;;;13.10;8.93;;;10.90;99.90;;;;;;4992208;28;20920;-75
2024/02/11 05:43:06;;;;;;;11.48;8.60;;;10.90;99.90;;;;;;4992163;28;20394;-74
2024/02/11 05:45:32;;;;;;;11.88;8.27;;;11.00;99.90;;;;;;4992321;28;20393;-75
2024/02/11 05:47:57;;;;;;;13.00;8.63;;;11.20;99.90;;;;;;4992037;28;20410;-75
2024/02/11 05:50:26;;;;;;;13.57;8.10;;;11.20;99.60;;;;;;4992132;28;20455;-74
2024/02/11 05:52:52;;;;;;;9.30;6.05;;;11.20;99.90;;;;;;4991738;28;20408;-74
2024/02/11 05:55:18;;;;;;;4.77;4.10;;;11.20;97.70;;;;;;4992008;28;20457;-74
2024/02/11 05:57:45;;;;;;;2.38;2.17;;;11.00;94.80;;;;;;4991663;28;20505;-75
2024/02/11 06:00:12;;;;;;;3.55;2.13;;;10.80;89.30;;;;;;4991614;28;20402;-75
2024/02/11 06:02:48;;;;;;;4.72;1.70;;;10.50;89.80;;;;;;4991535;28;20555;-73
2024/02/11 06:05:14;;;;;;;5.47;2.10;;;10.20;89.60;;;;;;4991559;28;20477;-75
2024/02/11 06:07:41;;;;;;;2.65;2.20;;;10.00;90.10;;;;;;4990893;28;20386;-73
2024/02/11 06:10:11;;;;;;;6.18;2.80;;;9.70;95.00;;;;;;4991786;28;20501;-75
2024/02/11 06:12:37;;;;;;;6.32;2.50;;;9.60;92.80;;;;;;4991588;28;20390;-75
2024/02/11 06:15:04;;;;;;;14.05;3.28;;;9.50;94.20;;;;;;4992171;28;20494;-74
2024/02/11 06:17:32;;;;;;;10.93;3.30;;;9.30;93.80;;;;;;4992642;28;20394;-76
2024/02/11 06:19:59;;;;;;;14.97;4.00;;;9.20;94.20;;;;;;4993808;28;20565;-74
2024/02/11 06:22:25;;;;;;;12.50;3.58;;;9.10;94.50;;;;;;4991369;28;20486;-74
2024/02/11 06:24:51;;;;;;;12.70;3.80;;;9.10;98.10;;;;;;4990324;28;20422;-72
2024/02/11 06:27:18;;;;;;;14.27;4.00;;;9.10;93.40;;;;;;4990064;28;20466;-75
2024/02/11 06:29:43;;;;;;;18.00;3.92;;;9.10;93.50;;;;;;4991148;28;20773;-74
2024/02/11 06:32:10;;;;;;;12.67;4.10;;;9.10;89.30;;;;;;4991338;28;20387;-73
2024/02/11 06:34:36;;;;;;;15.82;4.40;;;9.00;90.80;;;;;;4991420;28;20401;-75
2024/02/11 06:37:03;;;;;;;13.65;3.83;;;9.00;92.00;;;;;;4991569;28;20421;-74
2024/02/11 06:39:29;;;;;;;14.10;3.45;;;9.00;89.90;;;;;;4992721;28;20873;-74
2024/02/11 06:41:56;;;;;;;19.50;4.30;;;9.00;88.60;;;;;;4991862;28;20481;-73
2024/02/11 06:44:26;;;;;;;15.02;3.55;;;9.00;89.60;;;;;;4990920;28;20402;-74
2024/02/11 06:46:55;;;;;;;15.93;3.60;;;9.00;90.40;;;;;;4990974;28;20417;-74
2024/02/11 06:49:24;;;;;;;15.02;4.10;;;9.10;88.40;;;;;;4990957;28;20738;-74
2024/02/11 06:51:51;;;;;;;14.57;3.97;;;9.00;88.90;;;;;;4990816;28;20860;-75
2024/02/11 06:54:18;;;;;;;15.38;4.25;;;9.00;87.30;;;;;;4989610;28;20387;-74
2024/02/11 06:56:44;;;;;;;14.07;3.97;;;9.10;87.10;;;;;;4991666;28;20391;-74
2024/02/11 06:59:10;;;;;;;15.02;4.20;;;9.10;84.10;;;;;;4993150;28;20394;-74
2024/02/11 07:01:36;;;;;;;11.93;4.03;;;9.10;83.80;;;;;;4992333;28;20525;-75
2024/02/11 07:04:02;;;;;;;21.70;4.63;;;9.10;85.10;;;;;;4990757;28;20889;-74
2024/02/11 07:06:30;;;;;;;17.88;4.30;;;9.10;84.80;;;;;;4991004;28;20405;-74
2024/02/11 07:08:55;;;;;;;12.07;3.78;;;9.20;81.00;;;;;;4990993;28;20909;-73
2024/02/11 07:11:22;;;;;;;16.52;4.45;;;9.20;79.60;;;;;;4990689;28;20401;-73
2024/02/11 07:13:48;;;;;;;15.32;4.20;;;9.30;79.40;;;;;;4990652;28;20521;-74
2024/02/11 07:16:17;;;;;;;12.00;4.30;;;9.30;78.80;;;;;;4990584;28;20390;-74
2024/02/11 07:18:44;;;;;;;15.30;4.20;;;9.30;78.80;;;;;;4990872;28;20406;-72
2024/02/11 07:21:12;;;;;;;13.43;4.00;;;9.30;78.50;;;;;;4993561;28;20400;-74
2024/02/11 07:23:40;;;;;;;9.47;3.73;;;9.30;77.70;;;;;;4994335;28;20425;-74
2024/02/11 07:26:07;;;;;;;13.93;4.50;;;9.40;76.70;;;;;;4994559;28;20413;-74
2024/02/11 07:28:33;;;;;;;14.27;4.93;;;9.40;75.60;;;;;;4994064;28;20501;-72
2024/02/11 07:30:59;;;;;;;13.13;5.00;;;9.50;73.20;;;;;;4994504;28;20892;-74
2024/02/11 07:33:25;;;;;;;12.88;4.50;;;9.60;73.20;;;;;;4994191;28;20487;-74
2024/02/11 07:35:50;;;;;;;16.57;4.27;;;9.60;73.40;;;;;;4993849;28;20390;-74
2024/02/11 07:38:16;;;;;;;13.03;4.27;;;9.60;74.30;;;;;;4994003;28;20938;-74
2024/02/11 07:40:42;;;;;;;19.70;5.37;;;9.60;75.00;;;;;;4993923;28;20456;-72
2024/02/11 07:43:09;;;;;;;16.80;5.60;;;9.70;73.50;;;;;;4994156;28;20458;-73
2024/02/11 07:45:38;;;;;;;22.45;6.47;;;9.60;75.50;;;;;;4993931;28;20810;-74
2024/02/11 07:48:07;;;;;;;13.32;4.80;;;9.60;75.10;;;;;;4996672;28;20494;-75
2024/02/11 07:50:36;;;;;;;15.95;5.40;;;9.60;73.60;;;;;;4995807;28;20817;-74
2024/02/11 07:53:04;;;;;;;12.23;4.63;;;9.70;73.30;;;;;;4995047;28;20454;-74
2024/02/11 07:55:31;;;;;;;14.75;4.60;;;9.70;73.20;;;;;;4995879;28;20757;-73
2024/02/11 07:58:03;;;;;;;11.63;4.80;;;9.70;73.30;;;;;;4994984;28;20423;-73
2024/02/11 08:00:31;;;;;;;16.80;5.20;;;9.70;73.90;;;;;;4994199;28;20379;-73
2024/02/11 08:02:58;;;;;;;15.57;5.00;;;9.70;75.30;;;;;;4993594;28;20399;-74
2024/02/11 08:05:24;;;;;;;12.88;4.75;;;9.70;73.90;;;;;;4993742;28;20397;-73
2024/02/11 08:07:50;;;;;;;14.70;5.00;;;9.70;73.40;;;;;;4993375;28;20857;-74
2024/02/11 08:10:15;;;;;;;15.38;5.28;;;9.70;75.70;;;;;;4993430;28;20857;-73
2024/02/11 08:12:41;;;;;;;12.25;5.03;;;9.70;76.00;;;;;;4993654;28;20478;-74
2024/02/11 08:15:12;;;;;;;14.18;4.90;;;9.80;75.80;;;;;;4993364;28;20385;-73
2024/02/11 08:17:41;;;;;;;12.93;5.00;;;9.80;77.50;;;;;;4993284;28;20899;-73
2024/02/11 08:20:07;;;;;;;15.25;5.50;;;9.80;76.50;;;;;;4993429;28;20394;-70
2024/02/11 08:22:37;;;;;;;13.90;5.00;;;9.70;78.40;;;;;;4992836;28;20808;-74
2024/02/11 08:25:04;;;;;;;14.95;5.07;;;9.70;80.30;;;;;;4992897;28;20414;-73
2024/02/11 08:27:32;;;;;;;14.53;5.23;;;9.60;81.10;;;;;;4992861;28;20499;-74
2024/02/11 08:29:57;;;;;;;16.48;5.18;;;9.70;81.20;;;;;;4992987;28;20913;-74
2024/02/11 08:32:23;;;;;;;11.13;4.73;;;9.70;81.40;;;;;;4992389;28;20457;-74
2024/02/11 08:34:49;;;;;;;12.55;5.00;;;9.80;81.40;;;;;;4992469;28;20757;-75
2024/02/11 08:37:15;;;;;;;11.20;4.75;;;9.80;82.70;;;;;;4992679;28;20375;-71
2024/02/11 08:39:40;;;;;;;16.85;5.07;;;9.80;81.90;;;;;;4992756;28;20393;-72
2024/02/11 08:42:08;;;;;;;11.57;5.18;;;9.80;82.70;;;;;;4992979;28;20387;-74
2024/02/11 08:44:33;;;;;;;13.90;5.60;;;10.00;80.50;;;;;;4992465;28;20393;-74
2024/02/11 08:46:59;;;;;;;12.15;5.50;;;9.90;81.80;;;;;;4992981;28;20426;-74
2024/02/11 08:49:26;;;;;;;11.05;5.45;;;9.90;82.30;;;;;;4992874;28;20413;-75
2024/02/11 08:51:52;;;;;;;12.35;5.30;;;9.90;84.00;;;;;;5001561;28;20795;-74
2024/02/11 08:54:18;;;;;;;21.27;6.10;;;9.80;84.40;;;;;;5012133;28;20442;-75
2024/02/11 08:56:44;;;;;;;11.10;5.40;;;9.80;85.20;;;;;;5011949;28;20393;-75
2024/02/11 08:59:13;;;;;;;12.40;5.53;;;9.80;86.30;;;;;;5012262;28;20957;-76
2024/02/11 09:01:39;;;;;;;13.75;6.18;;;9.80;86.80;;;;;;5011730;28;20495;-75
2024/02/11 09:04:06;;;;;;;13.38;5.88;;;9.80;87.70;;;;;;5012151;28;20385;-74
2024/02/11 09:06:32;;;;;;;12.53;5.73;;;10.10;84.10;;;;;;5011427;28;20534;-74
2024/02/11 09:08:58;;;;;;;15.10;6.28;;;10.10;85.40;;;;;;5003297;28;20441;-74
2024/02/11 09:11:24;;;;;;;16.67;6.57;;;10.10;85.00;;;;;;4992658;28;20890;-75
2024/02/11 09:13:49;;;;;;;15.43;6.68;;;10.10;85.70;;;;;;4992461;28;20903;-73
2024/02/11 09:16:18;;;;;;;14.55;6.20;;;10.10;84.90;;;;;;4992879;28;20391;-78
2024/02/11 09:18:44;;;;;;;12.27;6.32;;;10.10;85.60;;;;;;4999697;28;20478;-75
2024/02/11 09:21:11;;;;;;;14.57;6.65;;;10.20;85.10;;;;;;5012278;28;20887;-74
2024/02/11 09:23:36;;;;;;;14.63;6.32;;;10.20;84.10;;;;;;5011802;28;20736;-74
2024/02/11 09:26:02;;;;;;;13.82;6.28;;;10.20;85.00;;;;;;5012829;28;20393;-74
2024/02/11 09:28:29;;;;;;;12.18;6.32;;;10.20;85.10;;;;;;5014633;28;20424;-76
2024/02/11 09:30:55;;;;;;;16.58;7.07;;;10.20;85.60;;;;;;5011957;28;20791;-76
2024/02/11 09:33:20;;;;;;;13.67;6.80;;;10.20;86.00;;;;;;5013393;28;20380;-75
2024/02/11 09:35:46;;;;;;;14.38;6.88;;;10.20;85.40;;;;;;5013007;28;20690;-76
2024/02/11 09:38:14;;;;;;;16.67;8.50;;;10.40;83.70;;;;;;5012297;28;20412;-75
2024/02/11 09:40:39;;;;;;;12.85;7.45;;;10.50;81.10;;;;;;5011684;28;20397;-75
2024/02/11 09:43:07;;;;;;;14.10;6.82;;;10.60;80.60;;;;;;5010796;28;20632;-74
2024/02/11 09:45:35;;;;;;;17.20;7.97;;;10.60;79.80;;;;;;5010913;28;20922;-73
2024/02/11 09:48:04;;;;;;;11.70;6.20;;;10.70;81.20;;;;;;5011256;28;20405;-75
2024/02/11 09:50:30;;;;;;;17.38;6.80;;;10.80;79.10;;;;;;5011043;28;20396;-74
2024/02/11 09:52:56;;;;;;;21.23;6.93;;;10.80;78.40;;;;;;5013438;28;20566;-73
2024/02/11 09:55:22;;;;;;;16.55;6.65;;;10.90;75.60;;;;;;5016804;28;20407;-75
2024/02/11 09:57:48;;;;;;;13.35;6.20;;;10.90;76.10;;;;;;5011870;28;20396;-73
2024/02/11 10:00:14;;;;;;;14.70;6.32;;;11.00;75.00;;;;;;5012133;28;20855;-76
2024/02/11 10:02:40;;;;;;;12.48;6.13;;;11.10;72.30;;;;;;5017989;28;20423;-74
2024/02/11 10:05:09;;;;;;;11.48;6.13;;;11.20;70.50;;;;;;5017998;28;20385;-75
2024/02/11 10:07:43;;;;;;;13.90;5.77;;;11.30;70.20;;;;;;5013554;28;20409;-77
2024/02/11 10:10:12;;;;;;;11.90;6.00;;;11.40;68.50;;;;;;5012476;28;20405;-73
2024/02/11 10:12:40;;;;;;;18.02;6.45;;;11.40;68.60;;;;;;5015654;28;20389;-71
2024/02/11 10:15:15;;;;;;;12.52;6.53;;;11.30;69.40;;;;;;5014401;28;20396;-75
2024/02/11 10:17:41;;;;;;;11.98;5.90;;;11.40;69.30;;;;;;5017510;28;20393;-76
2024/02/11 10:20:09;;;;;;;12.60;6.00;;;11.40;68.80;;;;;;5014362;28;20411;-77
2024/02/11 10:22:35;;;;;;;14.90;6.05;;;11.60;68.40;;;;;;5011804;28;20731;-77
2024/02/11 10:25:04;;;;;;;23.50;8.90;;;11.60;67.70;;;;;;5012961;28;20833;-77
2024/02/11 10:27:30;;;;;;;14.13;6.00;;;11.90;65.80;;;;;;5011823;28;20943;-74
2024/02/11 10:29:56;;;;;;;9.60;5.63;;;11.90;63.50;;;;;;5011544;28;20436;-74
2024/02/11 10:32:22;;;;;;;15.38;6.25;;;11.80;63.40;;;;;;5012077;28;20874;-76
2024/02/11 10:34:47;;;;;;;12.85;5.70;;;11.80;63.80;;;;;;5011724;28;20393;-77
2024/02/11 10:37:15;;;;;;;12.70;6.20;;;11.80;64.50;;;;;;5003846;28;20513;-75
2024/02/11 10:39:41;;;;;;;14.50;6.90;;;11.90;64.70;;;;;;4993723;28;20430;-77
2024/02/11 10:42:11;;;;;;;13.02;6.43;;;11.90;65.00;;;;;;4992682;28;20486;-77
2024/02/11 10:44:43;;;;;;;13.15;6.05;;;12.10;62.00;;;;;;4995498;28;20579;-76
2024/02/11 10:47:09;;;;;;;12.37;6.20;;;12.00;61.60;;;;;;5011013;28;20400;-76
2024/02/11 10:49:35;;;;;;;14.53;5.87;;;12.00;60.90;;;;;;5012905;28;20538;-77
2024/02/11 10:52:10;;;;;;;15.33;6.63;;;12.10;59.80;;;;;;5014159;28;20457;-77
2024/02/11 10:54:42;;;;;;;16.13;5.95;;;12.00;58.70;;;;;;5014533;28;20411;-78
2024/02/11 10:57:20;;;;;;;16.25;5.93;;;12.10;58.90;;;;;;5015557;28;20886;-77
2024/02/11 10:59:57;;;;;;;14.80;6.00;;;12.10;58.30;;;;;;5016264;28;20396;-77
2024/02/11 11:02:25;;;;;;;12.90;5.40;;;12.10;58.80;;;;;;5015038;28;20433;-78
2024/02/11 11:04:57;;;;;;;19.65;6.05;;;12.00;59.60;;;;;;5017095;28;20389;-79
2024/02/11 11:07:24;;;;;;;13.35;5.20;;;12.00;60.20;;;;;;5014813;28;20389;-72
2024/02/11 11:09:50;;;;;;;12.73;5.30;;;12.00;59.00;;;;;;5012387;28;20942;-78
2024/02/11 11:12:17;;;;;;;12.68;5.32;;;12.10;58.40;;;;;;5019455;28;20385;-75
2024/02/11 11:14:44;;;;;;;13.05;6.10;;;12.10;59.50;;;;;;5014027;28;20392;-80
2024/02/11 11:17:28;;;;;;;11.80;6.00;;;12.10;58.20;;;;;;5017217;28;20385;-79
2024/02/11 11:19:58;;;;;;;11.00;5.50;;;12.20;57.60;;;;;;5015931;28;20393;-73
2024/02/11 11:22:26;;;;;;;12.00;5.40;;;12.40;56.50;;;;;;5014082;28;20419;-75
2024/02/11 11:24:59;;;;;;;15.60;5.45;;;12.40;56.10;;;;;;5014862;28;20511;-77
2024/02/11 11:27:25;;;;;;;11.57;5.13;;;12.40;56.00;;;;;;5014650;28;20736;-77
2024/02/11 11:29:53;;;;;;;11.90;5.90;;;12.60;55.90;;;;;;5014359;28;20458;-74
2024/02/11 11:32:22;;;;;;;13.18;6.00;;;12.60;54.60;;;;;;5016021;28;20867;-76
2024/02/11 11:34:50;;;;;;;17.60;6.40;;;12.70;53.10;;;;;;4997351;28;20381;-76
2024/02/11 11:37:16;;;;;;;15.02;6.13;;;12.70;53.70;;;;;;5015683;28;20385;-74
2024/02/11 11:39:45;;;;;;;16.13;6.45;;;12.70;53.90;;;;;;5014634;28;20953;-73
2024/02/11 11:42:12;;;;;;;15.85;6.50;;;12.80;53.60;;;;;;5014317;28;20389;-74
2024/02/11 11:44:38;;;;;;;14.90;5.50;;;12.80;53.60;;;;;;5012226;28;20381;-74
2024/02/11 11:47:05;;;;;;;9.23;5.53;;;12.90;53.10;;;;;;5014480;28;20538;-73
2024/02/11 11:49:32;;;;;;;11.03;5.23;;;12.70;52.70;;;;;;5013129;28;20783;-74
2024/02/11 11:51:58;;;;;;;14.53;5.90;;;12.80;52.90;;;;;;5013237;28;20383;-73
2024/02/11 11:54:28;;;;;;;9.63;4.95;;;12.90;52.70;;;;;;5013225;28;20484;-72
2024/02/11 11:56:57;;;;;;;14.05;5.53;;;12.90;51.50;;;;;;5013619;28;20420;-74
2024/02/11 11:59:24;;;;;;;11.93;5.40;;;12.90;51.30;;;;;;5013645;28;20419;-75
2024/02/11 12:01:50;;;;;;;15.40;5.37;;;13.00;50.70;;;;;;5013517;28;21912;-76
2024/02/11 12:04:17;;;;;;;13.02;5.10;;;13.20;49.00;;;;;;5015145;28;20381;-74
2024/02/11 12:06:42;;;;;;;9.82;4.30;;;13.30;48.70;;;;;;5013279;28;20384;-72
2024/02/11 12:09:09;;;;;;;10.83;4.23;;;13.30;46.30;;;;;;5013947;28;20965;-74
2024/02/11 12:11:35;;;;;;;14.48;4.18;;;13.50;45.70;;;;;;5014108;28;20381;-75
2024/02/11 12:14:02;;;;;;;12.63;4.80;;;13.70;44.80;;;;;;5013703;28;20446;-73
2024/02/11 12:16:28;;;;;;;9.70;4.20;;;13.80;43.40;;;;;;5013369;28;20452;-75
2024/02/11 12:18:53;;;;;;;12.50;3.78;;;14.00;42.40;;;;;;5007664;28;20497;-75
2024/02/11 12:21:20;;;;;;;11.57;4.30;;;14.00;40.70;;;;;;4995361;28;20394;-73
2024/02/11 12:23:46;;;;;;;9.95;5.20;;;13.90;41.80;;;;;;5012594;28;20396;-73
2024/02/11 12:26:19;;;;;;;12.18;4.22;;;13.90;43.00;;;;;;5014106;28;20402;-73
2024/02/11 12:28:49;;;;;;;15.25;3.60;;;13.90;41.70;;;;;;5013533;28;20413;-76
2024/02/11 12:31:15;;;;;;;8.57;3.85;;;14.00;39.50;;;;;;5016188;28;20403;-75
2024/02/11 12:33:43;;;;;;;10.60;3.70;;;14.10;40.50;;;;;;5014449;28;20397;-76
2024/02/11 12:36:13;;;;;;;8.38;3.63;;;14.00;39.00;;;;;;5013132;28;20388;-73
2024/02/11 12:38:44;;;;;;;10.48;3.97;;;13.90;39.30;;;;;;5013365;28;20404;-73
2024/02/11 12:41:11;;;;;;;13.18;3.30;;;13.80;39.70;;;;;;5012884;28;20381;-73